createdAt,value
2018-07-04T00:00:16.420Z,76.46
2018-07-04T00:01:16.417Z,76.84
2018-07-04T00:02:16.445Z,76.94
2018-07-04T00:03:16.475Z,77.42
2018-07-04T00:04:16.488Z,77.51
2018-07-04T00:05:16.511Z,77.33
2018-07-04T00:06:16.536Z,77.13
2018-07-04T00:07:16.560Z,77.42
2018-07-04T00:08:16.574Z,77.51
2018-07-04T00:09:16.604Z,77.42
2018-07-04T00:10:16.635Z,77.61
2018-07-04T00:11:16.652Z,77.33
2018-07-04T00:12:16.666Z,77.42
2018-07-04T00:13:16.695Z,76.94
2018-07-04T00:14:16.721Z,77.51
2018-07-04T00:15:16.749Z,77.51
2018-07-04T00:16:16.763Z,77.51
2018-07-04T00:17:16.785Z,77.42
2018-07-04T00:18:16.810Z,77.29
2018-07-04T00:19:16.828Z,77.19
2018-07-04T00:20:16.854Z,77.48
2018-07-04T00:21:16.877Z,77.33
2018-07-04T00:22:16.900Z,77.38
2018-07-04T00:23:16.919Z,77.48
2018-07-04T00:24:16.942Z,77.00
2018-07-04T00:25:16.971Z,77.00
2018-07-04T00:26:16.998Z,77.29
2018-07-04T00:27:17.004Z,77.29
2018-07-04T00:28:17.030Z,77.38
2018-07-04T00:29:17.064Z,77.76
2018-07-04T00:30:17.100Z,77.58
2018-07-04T00:31:17.102Z,77.19
2018-07-04T00:32:17.128Z,77.58
2018-07-04T00:33:17.150Z,77.58
2018-07-04T00:34:17.164Z,77.38
2018-07-04T00:35:17.191Z,77.19
2018-07-04T00:36:17.217Z,77.67
2018-07-04T00:37:17.239Z,77.29
2018-07-04T00:38:17.252Z,77.29
2018-07-04T00:39:17.280Z,77.29
2018-07-04T00:40:17.307Z,77.19
2018-07-04T00:41:17.337Z,77.38
2018-07-04T00:42:17.352Z,77.38
2018-07-04T00:43:17.376Z,77.38
2018-07-04T00:44:17.410Z,77.76
2018-07-04T00:45:17.416Z,77.86
2018-07-04T00:46:17.442Z,77.95
2018-07-04T00:47:17.465Z,77.73
2018-07-04T00:48:17.496Z,77.73
2018-07-04T00:49:17.500Z,77.73
2018-07-04T00:50:17.527Z,77.73
2018-07-04T00:51:17.571Z,77.73
2018-07-04T00:52:17.573Z,77.73
2018-07-04T00:53:17.594Z,77.63
2018-07-04T00:54:17.620Z,77.63
2018-07-04T00:55:17.645Z,77.82
2018-07-04T00:56:17.658Z,77.92
2018-07-04T00:57:17.687Z,78.20
2018-07-04T00:58:17.713Z,78.59
2018-07-04T00:59:17.722Z,78.59
2018-07-04T01:00:17.751Z,78.69
2018-07-04T01:01:17.779Z,78.97
2018-07-04T01:02:17.793Z,78.88
2018-07-04T01:03:17.820Z,78.88
2018-07-04T01:04:17.847Z,79.45
2018-07-04T01:05:17.868Z,79.74
2018-07-04T01:06:17.884Z,79.45
2018-07-04T01:07:17.910Z,79.74
2018-07-04T01:08:17.937Z,80.27
2018-07-04T01:09:17.945Z,80.18
2018-07-04T01:10:17.974Z,80.56
2018-07-04T01:11:17.999Z,80.76
2018-07-04T01:12:18.024Z,81.04
2018-07-04T01:13:18.055Z,80.66
2018-07-04T01:14:18.068Z,80.85
2018-07-04T01:15:18.091Z,81.52
2018-07-04T01:16:18.103Z,81.23
2018-07-04T01:17:18.134Z,81.13
2018-07-04T01:18:18.159Z,81.04
2018-07-04T01:19:18.176Z,80.76
2018-07-04T01:20:18.200Z,81.13
2018-07-04T01:21:18.219Z,80.94
2018-07-04T01:22:18.234Z,80.66
2018-07-04T01:23:18.264Z,81.13
2018-07-04T01:24:18.290Z,80.47
2018-07-04T01:25:18.311Z,80.66
2018-07-04T01:26:18.329Z,81.23
2018-07-04T01:27:18.350Z,80.27
2018-07-04T01:28:18.382Z,80.47
2018-07-04T01:29:18.392Z,80.27
2018-07-04T01:30:18.420Z,80.27
2018-07-04T01:31:18.475Z,80.47
2018-07-04T01:32:18.457Z,80.66
2018-07-04T01:33:18.486Z,80.62
2018-07-04T01:34:18.512Z,80.52
2018-07-04T01:35:18.526Z,80.27
2018-07-04T01:36:18.550Z,80.18
2018-07-04T01:37:18.572Z,80.18
2018-07-04T01:38:18.588Z,80.47
2018-07-04T01:39:18.617Z,80.37
2018-07-04T01:40:18.645Z,80.27
2018-07-04T01:41:18.664Z,80.56
2018-07-04T01:42:18.678Z,80.24
2018-07-04T01:43:18.702Z,80.18
2018-07-04T01:44:18.716Z,80.76
2018-07-04T01:45:18.746Z,81.00
2018-07-04T01:46:18.772Z,80.81
2018-07-04T01:47:18.781Z,81.10
2018-07-04T01:48:18.808Z,81.38
2018-07-04T01:49:18.836Z,81.77
2018-07-04T01:50:18.852Z,81.20
2018-07-04T01:51:18.879Z,81.10
2018-07-04T01:52:18.908Z,81.20
2018-07-04T01:53:18.926Z,81.20
2018-07-04T01:54:18.942Z,81.10
2018-07-04T01:55:18.967Z,81.10
2018-07-04T01:56:18.993Z,81.86
2018-07-04T01:57:19.004Z,81.67
2018-07-04T01:58:19.030Z,81.96
2018-07-04T01:59:19.045Z,82.24
2018-07-04T02:00:19.072Z,82.43
2018-07-04T02:01:19.113Z,82.34
2018-07-04T02:02:19.115Z,82.92
2018-07-04T02:03:19.140Z,83.20
2018-07-04T02:04:19.162Z,83.49
2018-07-04T02:05:19.193Z,83.30
2018-07-04T02:06:19.205Z,83.30
2018-07-04T02:07:19.229Z,83.49
2018-07-04T02:08:19.255Z,83.59
2018-07-04T02:09:19.270Z,83.39
2018-07-04T02:10:19.291Z,83.30
2018-07-04T02:11:19.310Z,83.39
2018-07-04T02:12:19.336Z,83.59
2018-07-04T02:13:19.358Z,83.87
2018-07-04T02:14:19.372Z,83.78
2018-07-04T02:15:19.395Z,83.30
2018-07-04T02:16:19.425Z,83.36
2018-07-04T02:17:19.440Z,83.83
2018-07-04T02:18:19.465Z,84.02
2018-07-04T02:19:19.486Z,83.83
2018-07-04T02:20:19.500Z,84.16
2018-07-04T02:21:19.531Z,83.93
2018-07-04T02:22:19.557Z,84.12
2018-07-04T02:23:19.571Z,84.02
2018-07-04T02:24:19.598Z,83.93
2018-07-04T02:25:19.619Z,84.12
2018-07-04T02:26:19.634Z,84.02
2018-07-04T02:27:19.698Z,84.12
2018-07-04T02:28:19.925Z,84.31
2018-07-04T02:29:19.699Z,84.31
2018-07-04T02:30:19.735Z,84.22
2018-07-04T02:31:19.740Z,84.22
2018-07-04T02:32:19.766Z,84.59
2018-07-04T02:33:20.095Z,84.59
2018-07-04T02:34:19.807Z,84.69
2018-07-04T02:35:19.827Z,85.08
2018-07-04T02:36:19.854Z,84.59
2018-07-04T02:37:19.887Z,85.27
2018-07-04T02:38:19.896Z,85.36
2018-07-04T02:39:19.913Z,85.46
2018-07-04T02:40:19.937Z,85.75
2018-07-04T02:41:19.960Z,85.65
2018-07-04T02:42:19.974Z,85.17
2018-07-04T02:43:20.005Z,85.55
2018-07-04T02:44:20.029Z,85.55
2018-07-04T02:45:20.037Z,85.27
2018-07-04T02:46:20.063Z,85.46
2018-07-04T02:47:20.090Z,85.36
2018-07-04T02:48:20.105Z,85.55
2018-07-04T02:49:20.136Z,85.61
2018-07-04T02:50:20.153Z,84.94
2018-07-04T02:51:20.173Z,84.88
2018-07-04T02:52:20.208Z,85.03
2018-07-04T02:53:20.213Z,85.08
2018-07-04T02:54:20.239Z,85.03
2018-07-04T02:55:20.264Z,85.13
2018-07-04T02:56:20.279Z,85.03
2018-07-04T02:57:20.301Z,85.03
2018-07-04T02:58:20.325Z,85.03
2018-07-04T02:59:20.345Z,84.94
2018-07-04T03:00:20.370Z,84.94
2018-07-04T03:01:20.381Z,84.75
2018-07-04T03:02:20.406Z,85.41
2018-07-04T03:03:20.429Z,85.99
2018-07-04T03:04:20.455Z,85.41
2018-07-04T03:05:20.474Z,85.22
2018-07-04T03:06:20.498Z,85.51
2018-07-04T03:07:20.508Z,85.22
2018-07-04T03:08:20.535Z,85.80
2018-07-04T03:09:20.566Z,86.28
2018-07-04T03:10:20.581Z,86.08
2018-07-04T03:11:20.606Z,86.08
2018-07-04T03:12:20.619Z,85.89
2018-07-04T03:13:20.641Z,86.94
2018-07-04T03:14:20.666Z,86.94
2018-07-04T03:15:20.684Z,86.85
2018-07-04T03:16:20.709Z,87.04
2018-07-04T03:17:20.733Z,86.94
2018-07-04T03:18:20.744Z,86.85
2018-07-04T03:19:20.784Z,86.76
2018-07-04T03:20:20.786Z,86.28
2018-07-04T03:21:20.816Z,86.85
2018-07-04T03:22:20.842Z,86.47
2018-07-04T03:23:20.850Z,86.85
2018-07-04T03:24:20.877Z,86.76
2018-07-04T03:25:20.907Z,86.76
2018-07-04T03:26:20.920Z,86.76
2018-07-04T03:27:20.944Z,86.66
2018-07-04T03:28:20.958Z,85.99
2018-07-04T03:29:20.979Z,86.18
2018-07-04T03:30:21.006Z,86.18
2018-07-04T03:31:21.026Z,86.37
2018-07-04T03:32:21.054Z,86.85
2018-07-04T03:33:21.074Z,86.28
2018-07-04T03:34:21.085Z,86.94
2018-07-04T03:35:21.111Z,87.23
2018-07-04T03:36:21.126Z,87.33
2018-07-04T03:37:21.154Z,87.23
2018-07-04T03:38:21.181Z,87.23
2018-07-04T03:39:21.193Z,86.94
2018-07-04T03:40:21.233Z,87.04
2018-07-04T03:41:21.241Z,87.43
2018-07-04T03:42:21.255Z,87.23
2018-07-04T03:43:21.283Z,87.23
2018-07-04T03:44:21.297Z,87.23
2018-07-04T03:45:21.326Z,87.04
2018-07-04T03:46:21.366Z,87.04
2018-07-04T03:47:21.360Z,86.94
2018-07-04T03:48:21.393Z,87.71
2018-07-04T03:49:21.416Z,87.71
2018-07-04T03:50:21.429Z,88.29
2018-07-04T03:51:21.458Z,88.95
2018-07-04T03:52:21.471Z,88.38
2018-07-04T03:53:21.493Z,88.95
2018-07-04T03:54:21.519Z,88.57
2018-07-04T03:55:21.539Z,88.48
2018-07-04T03:56:21.563Z,88.76
2018-07-04T03:57:21.584Z,88.86
2018-07-04T03:58:21.598Z,88.67
2018-07-04T03:59:21.622Z,88.57
2018-07-04T04:00:21.647Z,88.48
2018-07-04T04:01:21.666Z,88.95
2018-07-04T04:02:21.691Z,88.48
2018-07-04T04:03:21.703Z,88.57
2018-07-04T04:04:21.728Z,88.86
2018-07-04T04:05:21.759Z,88.09
2018-07-04T04:06:21.772Z,88.38
2018-07-04T04:07:21.813Z,88.19
2018-07-04T04:08:21.821Z,88.00
2018-07-04T04:09:21.831Z,88.19
2018-07-04T04:10:21.861Z,88.76
2018-07-04T04:11:21.874Z,88.38
2018-07-04T04:12:21.901Z,88.76
2018-07-04T04:13:21.922Z,88.67
2018-07-04T04:14:21.937Z,89.34
2018-07-04T04:15:21.963Z,89.24
2018-07-04T04:16:21.991Z,89.15
2018-07-04T04:17:22.007Z,88.86
2018-07-04T04:18:22.033Z,88.86
2018-07-04T04:19:22.041Z,89.05
2018-07-04T04:20:22.068Z,89.05
2018-07-04T04:21:22.097Z,88.67
2018-07-04T04:22:22.110Z,88.86
2018-07-04T04:23:22.139Z,88.76
2018-07-04T04:24:22.164Z,88.86
2018-07-04T04:25:22.174Z,88.95
2018-07-04T04:26:22.203Z,89.43
2018-07-04T04:27:22.230Z,88.71
2018-07-04T04:28:22.243Z,88.76
2018-07-04T04:29:22.265Z,88.48
2018-07-04T04:30:22.280Z,88.95
2018-07-04T04:31:22.304Z,89.05
2018-07-04T04:32:22.329Z,89.15
2018-07-04T04:33:22.346Z,88.71
2018-07-04T04:34:22.372Z,88.71
2018-07-04T04:35:22.396Z,88.62
2018-07-04T04:36:22.451Z,88.62
2018-07-04T04:37:22.440Z,88.62
2018-07-04T04:38:22.466Z,88.90
2018-07-04T04:39:22.479Z,88.62
2018-07-04T04:40:22.503Z,88.90
2018-07-04T04:41:22.526Z,88.52
2018-07-04T04:42:22.581Z,88.62
2018-07-04T04:43:22.570Z,89.00
2018-07-04T04:44:22.596Z,89.19
2018-07-04T04:45:22.605Z,88.81
2018-07-04T04:46:22.631Z,89.09
2018-07-04T04:47:22.654Z,89.09
2018-07-04T04:48:22.669Z,88.33
2018-07-04T04:49:22.703Z,88.90
2018-07-04T04:50:22.713Z,88.13
2018-07-04T04:51:22.736Z,88.23
2018-07-04T04:52:22.762Z,88.62
2018-07-04T04:53:22.792Z,89.48
2018-07-04T04:54:22.806Z,89.52
2018-07-04T04:55:22.830Z,89.62
2018-07-04T04:56:22.844Z,89.43
2018-07-04T04:57:22.868Z,89.23
2018-07-04T04:58:22.890Z,89.04
2018-07-04T04:59:22.920Z,89.62
2018-07-04T05:00:22.935Z,89.43
2018-07-04T05:01:22.956Z,90.19
2018-07-04T05:02:22.970Z,89.90
2018-07-04T05:03:22.997Z,90.48
2018-07-04T05:04:23.024Z,90.39
2018-07-04T05:05:23.055Z,90.58
2018-07-04T05:06:23.068Z,90.43
2018-07-04T05:07:23.087Z,90.43
2018-07-04T05:08:23.115Z,90.14
2018-07-04T05:09:23.130Z,90.14
2018-07-04T05:10:23.156Z,90.23
2018-07-04T05:11:23.198Z,90.14
2018-07-04T05:12:23.198Z,89.95
2018-07-04T05:13:23.220Z,90.05
2018-07-04T05:14:23.246Z,89.95
2018-07-04T05:15:23.263Z,89.86
2018-07-04T05:16:23.289Z,89.47
2018-07-04T05:17:23.311Z,89.28
2018-07-04T05:18:23.338Z,88.90
2018-07-04T05:19:23.349Z,88.94
2018-07-04T05:20:23.375Z,88.46
2018-07-04T05:21:23.406Z,88.17
2018-07-04T05:22:23.417Z,87.88
2018-07-04T05:23:23.441Z,87.88
2018-07-04T05:24:23.480Z,88.08
2018-07-04T05:25:23.498Z,87.41
2018-07-04T05:26:23.513Z,87.60
2018-07-04T05:27:23.535Z,87.26
2018-07-04T05:28:23.562Z,86.78
2018-07-04T05:29:23.584Z,86.30
2018-07-04T05:30:23.610Z,86.11
2018-07-04T05:31:23.639Z,86.44
2018-07-04T05:32:23.652Z,86.15
2018-07-04T05:33:23.675Z,86.25
2018-07-04T05:34:23.688Z,86.19
2018-07-04T05:35:23.716Z,85.37
2018-07-04T05:36:23.915Z,84.51
2018-07-04T05:37:23.773Z,84.22
2018-07-04T05:38:23.799Z,82.73
2018-07-04T05:39:23.818Z,82.34
2018-07-04T05:40:23.893Z,81.99
2018-07-04T05:41:23.875Z,81.52
2018-07-04T05:42:23.900Z,81.23
2018-07-04T05:43:23.928Z,81.13
2018-07-04T05:44:23.994Z,80.69
2018-07-04T05:45:23.964Z,80.40
2018-07-04T05:46:23.988Z,80.69
2018-07-04T05:47:24.016Z,80.88
2018-07-04T05:48:24.042Z,80.30
2018-07-04T05:49:24.071Z,80.69
2018-07-04T05:50:24.218Z,80.02
2018-07-04T05:51:24.120Z,79.92
2018-07-04T05:52:24.159Z,80.11
2018-07-04T05:53:24.169Z,79.63
2018-07-04T05:54:24.195Z,79.35
2018-07-04T05:55:24.228Z,79.25
2018-07-04T05:56:24.253Z,79.28
2018-07-04T05:57:24.264Z,79.15
2018-07-04T05:58:24.289Z,78.96
2018-07-04T05:59:24.312Z,78.58
2018-07-04T06:00:24.341Z,78.61
2018-07-04T06:01:24.369Z,78.42
2018-07-04T06:02:24.396Z,77.75
2018-07-04T06:03:24.417Z,77.36
2018-07-04T06:04:24.443Z,77.36
2018-07-04T06:05:24.472Z,77.36
2018-07-04T06:06:24.502Z,77.94
2018-07-04T06:07:24.519Z,77.46
2018-07-04T06:08:24.540Z,76.88
2018-07-04T06:09:24.561Z,76.78
2018-07-04T06:10:24.588Z,76.01
2018-07-04T06:11:24.615Z,75.44
2018-07-04T06:12:24.642Z,75.34
2018-07-04T06:13:24.662Z,75.44
2018-07-04T06:14:24.696Z,75.82
2018-07-04T06:15:24.717Z,75.96
2018-07-04T06:16:24.743Z,75.57
2018-07-04T06:17:24.773Z,75.67
2018-07-04T06:18:24.787Z,76.34
2018-07-04T06:19:24.810Z,76.06
2018-07-04T06:20:24.835Z,76.25
2018-07-04T06:21:24.865Z,76.28
2018-07-04T06:22:24.890Z,75.71
2018-07-04T06:23:24.914Z,74.65
2018-07-04T06:24:24.941Z,73.78
2018-07-04T06:25:24.962Z,73.53
2018-07-04T06:26:24.989Z,73.24
2018-07-04T06:27:25.029Z,72.79
2018-07-04T06:28:25.047Z,72.50
2018-07-04T06:29:25.069Z,71.67
2018-07-04T06:30:25.096Z,70.70
2018-07-04T06:31:25.118Z,69.78
2018-07-04T06:32:25.172Z,69.58
2018-07-04T06:33:25.187Z,68.84
2018-07-04T06:34:25.237Z,68.46
2018-07-04T06:35:25.235Z,69.36
2018-07-04T06:36:25.261Z,70.36
2018-07-04T06:37:25.303Z,69.49
2018-07-04T06:38:25.330Z,66.63
2018-07-04T06:39:25.373Z,66.24
2018-07-04T06:40:25.383Z,65.56
2018-07-04T06:41:25.417Z,65.40
2018-07-04T06:42:25.443Z,65.11
2018-07-04T06:43:25.471Z,64.53
2018-07-04T06:44:25.511Z,64.04
2018-07-04T06:45:25.532Z,63.01
2018-07-04T06:46:25.560Z,62.56
2018-07-04T06:47:25.601Z,60.72
2018-07-04T06:48:25.624Z,60.07
2018-07-04T06:49:25.668Z,59.23
2018-07-04T06:50:25.694Z,58.84
2018-07-04T06:51:25.726Z,57.78
2018-07-04T06:52:25.752Z,57.22
2018-07-04T06:53:25.795Z,56.37
2018-07-04T06:54:25.849Z,55.04
2018-07-04T06:55:25.874Z,54.46
2018-07-04T06:56:25.886Z,53.71
2018-07-04T06:57:25.924Z,52.96
2018-07-04T06:58:25.947Z,51.99
2018-07-04T06:59:25.986Z,52.09
2018-07-04T07:00:26.014Z,51.53
2018-07-04T07:01:26.049Z,51.53
2018-07-04T07:02:26.099Z,52.33
2018-07-04T07:03:26.114Z,53.79
2018-07-04T07:04:26.152Z,51.97
2018-07-04T07:05:26.194Z,51.09
2018-07-04T07:06:26.221Z,51.29
2018-07-04T07:07:26.256Z,52.67
2018-07-04T07:08:26.366Z,53.55
2018-07-04T07:09:26.324Z,53.09
2018-07-04T07:10:26.364Z,51.65
2018-07-04T07:11:26.399Z,49.71
2018-07-04T07:12:26.437Z,49.22
2018-07-04T07:13:26.460Z,50.97
2018-07-04T07:14:26.536Z,51.07
2018-07-04T07:15:26.543Z,49.34
2018-07-04T07:16:26.593Z,48.17
2018-07-04T07:17:26.615Z,48.58
2018-07-04T07:18:26.641Z,49.85
2018-07-04T07:19:26.677Z,50.34
2018-07-04T07:20:26.718Z,49.88
2018-07-04T07:22:26.803Z,49.41
2018-07-04T07:23:26.848Z,48.44
2018-07-04T07:24:26.856Z,48.44
2018-07-04T07:25:26.896Z,48.93
2018-07-04T07:26:26.939Z,48.26
2018-07-04T07:27:26.996Z,48.26
2018-07-04T07:28:27.017Z,49.07
2018-07-04T07:29:27.056Z,48.38
2018-07-04T07:30:27.092Z,46.55
2018-07-04T07:31:27.129Z,45.37
2018-07-04T07:32:27.171Z,44.10
2018-07-04T07:33:27.215Z,43.62
2018-07-04T07:34:27.231Z,43.71
2018-07-04T07:35:27.269Z,44.10
2018-07-04T07:36:27.309Z,44.69
2018-07-04T07:37:27.346Z,45.20
2018-07-04T07:38:27.390Z,45.50
2018-07-04T07:39:27.429Z,45.59
2018-07-04T07:40:27.463Z,45.30
2018-07-04T07:41:27.500Z,45.72
2018-07-04T07:42:27.546Z,46.59
2018-07-04T07:43:27.584Z,47.18
2018-07-04T07:44:27.619Z,46.01
2018-07-04T07:45:27.669Z,44.37
2018-07-04T07:46:27.691Z,43.98
2018-07-04T07:47:27.729Z,44.07
2018-07-04T07:48:27.774Z,45.15
2018-07-04T07:49:27.812Z,45.47
2018-07-04T07:50:27.851Z,43.99
2018-07-04T07:51:27.885Z,44.78
2018-07-04T07:52:27.922Z,45.07
2018-07-04T07:53:27.974Z,44.98
2018-07-04T07:54:28.048Z,45.56
2018-07-04T07:55:28.055Z,45.95
2018-07-04T07:56:28.092Z,44.98
2018-07-04T07:57:28.132Z,45.39
2018-07-04T07:58:28.165Z,45.66
2018-07-04T07:59:28.203Z,44.80
2018-07-04T08:00:28.257Z,42.74
2018-07-04T08:01:28.284Z,42.35
2018-07-04T08:02:28.324Z,41.66
2018-07-04T08:03:28.364Z,41.66
2018-07-04T08:04:28.396Z,41.29
2018-07-04T08:05:28.447Z,41.09
2018-07-04T08:06:28.490Z,40.80
2018-07-04T08:07:28.527Z,41.39
2018-07-04T08:08:28.570Z,41.51
2018-07-04T08:09:28.606Z,40.80
2018-07-04T08:10:28.642Z,40.63
2018-07-04T08:11:28.679Z,40.63
2018-07-04T08:12:28.723Z,40.43
2018-07-04T08:13:28.774Z,39.94
2018-07-04T08:14:28.807Z,39.45
2018-07-04T08:15:28.846Z,39.86
2018-07-04T08:16:28.881Z,39.76
2018-07-04T08:17:28.921Z,39.27
2018-07-04T08:18:28.963Z,41.33
2018-07-04T08:19:29.014Z,41.33
2018-07-04T08:20:29.051Z,40.84
2018-07-04T08:21:29.090Z,40.84
2018-07-04T08:22:29.133Z,41.35
2018-07-04T08:23:29.170Z,41.06
2018-07-04T08:24:29.218Z,40.86
2018-07-04T08:25:29.258Z,40.27
2018-07-04T08:26:29.292Z,40.86
2018-07-04T08:27:29.331Z,41.25
2018-07-04T08:28:29.373Z,41.96
2018-07-04T08:29:29.424Z,42.55
2018-07-04T08:30:29.458Z,42.06
2018-07-04T08:31:29.496Z,41.47
2018-07-04T08:32:29.538Z,41.96
2018-07-04T08:33:29.642Z,41.86
2018-07-04T08:34:29.631Z,42.85
2018-07-04T08:35:29.670Z,42.85
2018-07-04T08:36:29.703Z,41.09
2018-07-04T08:37:29.752Z,40.29
2018-07-04T08:38:29.795Z,38.44
2018-07-04T08:39:29.833Z,37.85
2018-07-04T08:40:29.886Z,37.65
2018-07-04T08:41:29.925Z,38.34
2018-07-04T08:42:29.960Z,39.13
2018-07-04T08:43:29.998Z,38.84
2018-07-04T08:44:30.054Z,40.51
2018-07-04T08:45:30.092Z,38.54
2018-07-04T08:46:30.126Z,38.24
2018-07-04T08:47:30.182Z,37.16
2018-07-04T08:48:30.213Z,36.99
2018-07-04T08:49:30.252Z,37.28
2018-07-04T08:50:30.295Z,36.79
2018-07-04T08:51:30.345Z,36.59
2018-07-04T08:52:30.430Z,36.97
2018-07-04T08:53:30.433Z,37.28
2018-07-04T08:54:30.475Z,37.67
2018-07-04T08:55:30.516Z,40.13
2018-07-04T08:56:30.553Z,40.92
2018-07-04T08:57:30.602Z,40.05
2018-07-04T08:58:30.674Z,40.53
2018-07-04T08:59:30.678Z,42.00
2018-07-04T09:00:30.731Z,38.56
2018-07-04T09:01:30.770Z,36.40
2018-07-04T09:02:30.817Z,36.10
2018-07-04T09:03:30.867Z,36.18
2018-07-04T09:04:30.891Z,36.69
2018-07-04T09:05:30.991Z,38.56
2018-07-04T09:06:30.987Z,39.64
2018-07-04T09:07:31.024Z,39.44
2018-07-04T09:08:31.072Z,39.84
2018-07-04T09:09:31.110Z,37.79
2018-07-04T09:10:31.165Z,37.89
2018-07-04T09:11:31.256Z,37.30
2018-07-04T09:12:31.245Z,36.71
2018-07-04T09:13:31.292Z,36.90
2018-07-04T09:14:31.326Z,36.02
2018-07-04T09:15:31.365Z,36.61
2018-07-04T09:16:31.419Z,36.92
2018-07-04T09:17:31.459Z,36.53
2018-07-04T09:18:31.510Z,39.48
2018-07-04T09:19:31.544Z,41.94
2018-07-04T09:20:31.596Z,41.16
2018-07-04T09:21:31.636Z,39.68
2018-07-04T09:22:31.677Z,39.97
2018-07-04T09:23:31.728Z,39.68
2018-07-04T09:24:31.806Z,39.28
2018-07-04T09:25:31.812Z,38.02
2018-07-04T09:26:31.854Z,37.83
2018-07-04T09:27:31.907Z,36.65
2018-07-04T09:28:31.948Z,35.36
2018-07-04T09:29:31.998Z,35.17
2018-07-04T09:30:32.046Z,35.36
2018-07-04T09:31:32.071Z,35.86
2018-07-04T09:32:32.128Z,35.07
2018-07-04T09:33:32.163Z,34.59
2018-07-04T09:34:32.211Z,34.20
2018-07-04T09:35:32.252Z,33.51
2018-07-04T09:36:32.297Z,32.42
2018-07-04T09:37:32.335Z,32.23
2018-07-04T09:38:32.394Z,32.84
2018-07-04T09:39:32.430Z,32.73
2018-07-04T09:40:32.479Z,32.93
2018-07-04T09:41:32.517Z,34.01
2018-07-04T09:42:32.571Z,33.44
2018-07-04T09:43:32.611Z,33.34
2018-07-04T09:44:32.662Z,34.13
2018-07-04T09:45:32.711Z,34.23
2018-07-04T09:46:32.744Z,33.46
2018-07-04T09:47:32.798Z,33.65
2018-07-04T09:48:32.839Z,33.46
2018-07-04T09:49:32.938Z,32.37
2018-07-04T09:50:32.938Z,32.07
2018-07-04T09:51:32.974Z,32.28
2018-07-04T09:52:33.027Z,32.39
2018-07-04T09:53:33.070Z,32.18
2018-07-04T09:54:33.109Z,32.29
2018-07-04T09:55:33.162Z,32.09
2018-07-04T09:56:33.204Z,32.29
2018-07-04T09:57:33.253Z,31.99
2018-07-04T09:58:33.298Z,31.70
2018-07-04T09:59:33.337Z,31.70
2018-07-04T10:00:33.389Z,31.90
2018-07-04T10:01:33.428Z,32.09
2018-07-04T10:02:33.475Z,32.09
2018-07-04T10:03:33.526Z,31.99
2018-07-04T10:04:33.561Z,31.90
2018-07-04T10:05:33.613Z,31.40
2018-07-04T10:06:33.656Z,31.20
2018-07-04T10:07:33.708Z,30.92
2018-07-04T10:08:33.748Z,31.30
2018-07-04T10:09:33.797Z,31.41
2018-07-04T10:10:33.833Z,31.12
2018-07-04T10:11:33.884Z,31.51
2018-07-04T10:12:33.948Z,31.43
2018-07-04T10:13:33.973Z,30.74
2018-07-04T10:14:34.020Z,30.83
2018-07-04T10:15:34.060Z,30.76
2018-07-04T10:16:34.113Z,30.95
2018-07-04T10:17:34.164Z,30.16
2018-07-04T10:18:34.208Z,30.95
2018-07-04T10:19:34.258Z,31.07
2018-07-04T10:20:34.304Z,31.46
2018-07-04T10:21:34.345Z,31.56
2018-07-04T10:22:34.402Z,31.48
2018-07-04T10:23:34.435Z,30.88
2018-07-04T10:24:34.489Z,29.99
2018-07-04T10:25:34.535Z,30.10
2018-07-04T10:26:34.570Z,30.21
2018-07-04T10:27:34.625Z,30.10
2018-07-04T10:28:34.667Z,30.12
2018-07-04T10:29:34.717Z,28.53
2018-07-04T10:30:34.766Z,28.63
2018-07-04T10:31:34.803Z,28.64
2018-07-04T10:32:34.852Z,29.44
2018-07-04T10:33:34.893Z,29.75
2018-07-04T10:34:34.944Z,29.55
2018-07-04T10:35:34.996Z,28.56
2018-07-04T10:36:35.031Z,28.66
2018-07-04T10:37:35.081Z,29.16
2018-07-04T10:38:35.140Z,29.36
2018-07-04T10:39:35.176Z,29.25
2018-07-04T10:40:35.227Z,28.77
2018-07-04T10:41:35.294Z,28.29
2018-07-04T10:42:35.315Z,27.89
2018-07-04T10:43:35.365Z,27.81
2018-07-04T10:44:35.407Z,27.61
2018-07-04T10:45:35.456Z,27.61
2018-07-04T10:46:35.502Z,27.62
2018-07-04T10:47:35.541Z,27.23
2018-07-04T10:48:35.593Z,26.82
2018-07-04T10:49:35.646Z,27.54
2018-07-04T10:50:35.701Z,27.92
2018-07-04T10:51:35.738Z,27.83
2018-07-04T10:52:35.785Z,26.54
2018-07-04T10:53:35.837Z,26.54
2018-07-04T10:54:35.883Z,27.44
2018-07-04T10:55:35.930Z,26.94
2018-07-04T10:56:35.980Z,27.15
2018-07-04T10:57:36.017Z,26.45
2018-07-04T10:58:36.088Z,26.35
2018-07-04T10:59:36.115Z,26.67
2018-07-04T11:00:36.161Z,26.17
2018-07-04T11:01:36.212Z,26.08
2018-07-04T11:02:36.258Z,25.77
2018-07-04T11:03:36.308Z,25.57
2018-07-04T11:04:36.398Z,25.97
2018-07-04T11:05:36.396Z,26.18
2018-07-04T11:06:36.438Z,26.48
2018-07-04T11:07:36.490Z,26.48
2018-07-04T11:08:36.539Z,26.09
2018-07-04T11:09:36.595Z,25.78
2018-07-04T11:10:36.647Z,25.59
2018-07-04T11:11:36.683Z,25.40
2018-07-04T11:12:36.731Z,25.90
2018-07-04T11:13:36.770Z,26.51
2018-07-04T11:14:36.817Z,26.40
2018-07-04T11:15:36.871Z,27.20
2018-07-04T11:16:36.913Z,27.11
2018-07-04T11:17:37.264Z,26.51
2018-07-04T11:18:37.014Z,26.51
2018-07-04T11:19:37.061Z,26.51
2018-07-04T11:20:37.099Z,26.22
2018-07-04T11:21:37.149Z,25.72
2018-07-04T11:22:37.274Z,25.63
2018-07-04T11:23:37.242Z,25.54
2018-07-04T11:24:37.294Z,25.43
2018-07-04T11:25:37.354Z,25.65
2018-07-04T11:26:37.383Z,26.34
2018-07-04T11:27:37.434Z,26.04
2018-07-04T11:28:37.487Z,25.65
2018-07-04T11:29:37.538Z,25.96
2018-07-04T11:30:37.571Z,26.26
2018-07-04T11:31:37.622Z,25.46
2018-07-04T11:32:37.688Z,24.66
2018-07-04T11:33:37.716Z,24.16
2018-07-04T11:34:37.766Z,24.16
2018-07-04T11:35:37.812Z,23.66
2018-07-04T11:36:37.865Z,23.86
2018-07-04T11:37:37.903Z,24.06
2018-07-04T11:38:37.958Z,23.96
2018-07-04T11:39:38.009Z,24.07
2018-07-04T11:40:38.047Z,25.16
2018-07-04T11:41:38.096Z,24.87
2018-07-04T11:42:38.151Z,24.36
2018-07-04T11:43:38.204Z,24.76
2018-07-04T11:44:38.238Z,24.37
2018-07-04T11:45:38.288Z,24.46
2018-07-04T11:46:38.335Z,24.27
2018-07-04T11:47:38.375Z,24.26
2018-07-04T11:48:38.431Z,24.37
2018-07-04T11:49:38.532Z,24.07
2018-07-04T11:50:38.529Z,24.47
2018-07-04T11:51:38.568Z,24.57
2018-07-04T11:52:38.629Z,24.58
2018-07-04T11:53:38.668Z,24.18
2018-07-04T11:54:38.760Z,23.99
2018-07-04T11:55:38.761Z,23.39
2018-07-04T11:56:38.814Z,23.00
2018-07-04T11:57:38.858Z,22.80
2018-07-04T11:58:38.902Z,22.69
2018-07-04T11:59:38.990Z,23.30
2018-07-04T12:00:39.004Z,23.39
2018-07-04T12:01:39.095Z,22.88
2018-07-04T12:02:39.091Z,23.28
2018-07-04T12:03:39.141Z,22.88
2018-07-04T12:04:39.194Z,22.58
2018-07-04T12:05:39.233Z,23.08
2018-07-04T12:06:39.279Z,23.49
2018-07-04T12:07:39.331Z,23.28
2018-07-04T12:08:39.384Z,23.28
2018-07-04T12:09:39.422Z,22.80
2018-07-04T12:10:39.477Z,22.80
2018-07-04T12:11:39.528Z,23.10
2018-07-04T12:12:39.566Z,23.30
2018-07-04T12:13:39.617Z,22.91
2018-07-04T12:14:39.664Z,22.80
2018-07-04T12:15:39.715Z,23.00
2018-07-04T12:16:39.753Z,23.49
2018-07-04T12:17:39.804Z,23.61
2018-07-04T12:18:39.857Z,24.21
2018-07-04T12:19:39.896Z,24.11
2018-07-04T12:20:39.945Z,24.11
2018-07-04T12:21:39.998Z,23.90
2018-07-04T12:22:40.040Z,24.10
2018-07-04T12:23:40.094Z,23.90
2018-07-04T12:24:40.141Z,23.99
2018-07-04T12:25:40.193Z,23.88
2018-07-04T12:26:40.284Z,24.30
2018-07-04T12:27:40.275Z,23.99
2018-07-04T12:28:40.342Z,24.29
2018-07-04T12:29:40.369Z,24.07
2018-07-04T12:30:40.415Z,23.97
2018-07-04T12:31:40.454Z,23.76
2018-07-04T12:32:40.506Z,24.06
2018-07-04T12:33:40.561Z,24.26
2018-07-04T12:34:40.600Z,24.16
2018-07-04T12:35:40.654Z,24.26
2018-07-04T12:36:40.698Z,24.16
2018-07-04T12:37:40.735Z,24.26
2018-07-04T12:38:40.789Z,24.16
2018-07-04T12:39:40.842Z,24.67
2018-07-04T12:40:40.882Z,24.37
2018-07-04T12:41:40.932Z,24.07
2018-07-04T12:42:40.968Z,24.29
2018-07-04T12:43:41.034Z,24.38
2018-07-04T12:44:41.072Z,24.19
2018-07-04T12:45:41.123Z,24.10
2018-07-04T12:46:41.157Z,24.30
2018-07-04T12:47:41.209Z,23.80
2018-07-04T12:48:41.244Z,23.49
2018-07-04T12:49:41.308Z,22.89
2018-07-04T12:50:41.350Z,23.49
2018-07-04T12:51:41.390Z,23.49
2018-07-04T12:52:41.439Z,23.49
2018-07-04T12:53:41.489Z,23.19